Time;durP1;ratioP1;P1;durP2;ratioP2;P2;SDS_P1;SDS_P2;PMS_P1;PMS_P2;Temp;Humidity;BMP_temperature;BMP_pressure;BME280_temperature;BME280_humidity;BME280_pressure;Samples;Min_cycle;Max_cycle;Signal;HPM_P1;HPM_P2
2023/11/14 00:00:05;;;;;;;5.10;4.00;;;;;;;3.96;66.59;93580.84;513325;28;885;-65
2023/11/14 00:00:20;;;;;;;5.32;3.55;;;;;;;3.96;67.06;93575.38;513472;28;962;-65
2023/11/14 00:00:35;;;;;;;6.55;4.15;;;;;;;3.96;66.46;93575.38;513737;28;837;-65
2023/11/14 00:00:51;;;;;;;5.53;4.30;;;;;;;3.96;66.67;93581.59;513385;28;900;-65
2023/11/14 00:01:06;;;;;;;5.18;4.18;;;;;;;3.96;66.90;93578.84;513483;28;904;-65
2023/11/14 00:01:22;;;;;;;5.33;4.10;;;;;;;3.87;66.94;93573.66;513422;28;848;-65
2023/11/14 00:01:37;;;;;;;4.93;4.03;;;;;;;3.95;66.33;93579.34;513609;28;780;-65
2023/11/14 00:01:54;;;;;;;5.30;4.18;;;;;;;3.96;67.03;93578.09;513396;28;789;-65
2023/11/14 00:02:09;;;;;;;6.05;4.63;;;;;;;3.97;67.11;93582.31;513428;28;884;-65
2023/11/14 00:02:25;;;;;;;6.40;5.10;;;;;;;3.81;66.93;93560.03;513440;28;809;-65
2023/11/14 00:02:40;;;;;;;5.73;4.70;;;;;;;3.97;66.90;93583.06;513717;28;1500;-65
2023/11/14 00:02:55;;;;;;;7.00;4.47;;;;;;;3.97;66.92;93574.13;513412;28;774;-65
2023/11/14 00:03:11;;;;;;;8.77;5.40;;;;;;;3.99;66.97;93577.09;513413;28;817;-65
2023/11/14 00:03:29;;;;;;;8.07;5.95;;;;;;;4.00;66.55;93581.31;513338;28;903;-65
2023/11/14 00:03:44;;;;;;;8.27;5.93;;;;;;;4.00;66.39;93581.31;513689;28;825;-65
2023/11/14 00:04:00;;;;;;;9.97;6.50;;;;;;;4.00;66.23;93573.88;513350;28;1106;-65
2023/11/14 00:04:15;;;;;;;10.85;6.70;;;;;;;4.01;66.45;93578.06;513309;28;841;-65
2023/11/14 00:04:31;;;;;;;10.33;6.93;;;;;;;4.02;66.16;93576.09;513407;28;861;-65
2023/11/14 00:04:46;;;;;;;11.23;7.10;;;;;;;4.02;66.78;93576.09;513620;28;766;-65
2023/11/14 00:05:01;;;;;;;9.90;6.88;;;;;;;4.02;66.72;93571.38;513267;28;777;-65
2023/11/14 00:05:17;;;;;;;9.40;6.80;;;;;;;4.02;66.68;93576.84;513384;28;1970;-65
2023/11/14 00:05:36;;;;;;;10.45;6.60;;;;;;;4.02;66.13;93573.34;513421;28;848;-65
2023/11/14 00:05:52;;;;;;;10.02;6.65;;;;;;;4.00;66.38;93584.78;513532;28;880;-65
2023/11/14 00:06:07;;;;;;;10.23;7.35;;;;;;;3.99;67.16;93577.84;513529;28;797;-65
2023/11/14 00:06:23;;;;;;;11.37;8.13;;;;;;;3.99;66.69;93574.34;513441;28;915;-65
2023/11/14 00:06:38;;;;;;;12.30;8.30;;;;;;;3.81;67.07;93557.28;513550;28;912;-65
2023/11/14 00:06:54;;;;;;;12.43;8.00;;;;;;;3.92;67.42;93567.44;513595;28;789;-65
2023/11/14 00:07:10;;;;;;;11.52;7.72;;;;;;;3.92;67.41;93572.88;513398;28;809;-65
2023/11/14 00:07:25;;;;;;;11.53;7.97;;;;;;;3.91;66.98;93579.63;513414;28;782;-65
2023/11/14 00:07:40;;;;;;;11.60;8.00;;;;;;;3.91;67.67;93574.16;513392;28;954;-65
2023/11/14 00:07:56;;;;;;;11.27;7.50;;;;;;;3.78;67.34;93550.13;511550;28;2464;-66
2023/11/14 00:08:11;;;;;;;13.05;8.00;;;;;;;3.92;67.70;93572.16;513433;28;770;-65
2023/11/14 00:08:27;;;;;;;11.40;7.57;;;;;;;3.92;67.16;93569.44;513337;28;1070;-65
2023/11/14 00:08:42;;;;;;;9.82;6.40;;;;;;;3.93;67.22;93577.13;513506;28;869;-65
2023/11/14 00:08:57;;;;;;;10.87;6.53;;;;;;;3.94;67.64;93575.13;513457;28;786;-65
2023/11/14 00:09:13;;;;;;;10.90;6.80;;;;;;;3.95;67.49;93573.88;513306;28;904;-65
2023/11/14 00:09:29;;;;;;;11.15;7.22;;;;;;;3.96;67.71;93573.41;513494;28;793;-65
2023/11/14 00:09:47;;;;;;;9.65;6.38;;;;;;;3.98;67.63;93572.88;513299;28;888;-66
2023/11/14 00:10:03;;;;;;;7.53;5.35;;;;;;;3.96;68.12;93561.72;513509;28;800;-66
2023/11/14 00:10:19;;;;;;;8.05;5.43;;;;;;;3.98;67.71;93562.72;513392;28;870;-66
2023/11/14 00:10:34;;;;;;;8.40;5.20;;;;;;;3.99;68.19;93564.19;513507;28;766;-66
2023/11/14 00:10:51;;;;;;;8.48;4.43;;;;;;;4.00;68.05;93573.88;513407;28;974;-65
2023/11/14 00:11:06;;;;;;;7.10;3.90;;;;;;;4.01;68.24;93567.16;513607;28;931;-66
2023/11/14 00:11:24;;;;;;;5.00;3.60;;;;;;;4.02;68.13;93562.44;513393;28;992;-65
2023/11/14 00:11:40;;;;;;;3.47;3.17;;;;;;;3.75;68.18;93523.81;513464;28;903;-65
2023/11/14 00:11:56;;;;;;;4.63;3.10;;;;;;;3.95;67.86;93560.97;513252;28;900;-66
2023/11/14 00:12:13;;;;;;;5.35;3.13;;;;;;;4.02;67.66;93568.66;513441;28;793;-65
2023/11/14 00:12:29;;;;;;;4.93;3.17;;;;;;;4.03;67.59;93564.66;513602;28;942;-66
2023/11/14 00:12:44;;;;;;;4.53;3.00;;;;;;;4.03;68.13;93572.13;513457;28;856;-65
2023/11/14 00:13:00;;;;;;;4.77;3.10;;;;;;;4.04;68.05;93565.41;513423;28;833;-65
2023/11/14 00:13:15;;;;;;;4.38;2.90;;;;;;;4.05;67.82;93564.16;513421;28;841;-66
2023/11/14 00:13:32;;;;;;;3.50;2.67;;;;;;;4.04;67.63;93560.69;513628;28;853;-65
2023/11/14 00:13:47;;;;;;;3.75;2.70;;;;;;;4.05;67.72;93567.63;513234;28;891;-66
2023/11/14 00:14:03;;;;;;;5.20;3.20;;;;;;;4.06;67.36;93562.91;513037;28;845;-66
2023/11/14 00:14:21;;;;;;;5.65;3.42;;;;;;;4.07;67.72;93575.34;513167;28;778;-66
2023/11/14 00:14:37;;;;;;;5.10;3.67;;;;;;;4.07;67.71;93564.41;513599;28;877;-65
2023/11/14 00:14:52;;;;;;;5.15;3.80;;;;;;;4.08;67.32;93565.88;513477;28;845;-65
2023/11/14 00:15:08;;;;;;;4.83;3.73;;;;;;;4.08;67.57;93566.63;513364;28;848;-66
2023/11/14 00:15:26;;;;;;;6.85;3.80;;;;;;;4.08;67.47;93568.59;513269;28;842;-65
2023/11/14 00:15:41;;;;;;;6.03;3.58;;;;;;;4.04;67.20;93563.41;513453;28;841;-65
2023/11/14 00:15:57;;;;;;;5.20;3.60;;;;;;;4.04;67.53;93565.41;513450;28;939;-65
2023/11/14 00:16:12;;;;;;;5.57;3.73;;;;;;;4.00;67.40;93564.94;513460;28;896;-66
2023/11/14 00:16:27;;;;;;;5.28;4.03;;;;;;;3.99;66.76;93572.38;513267;28;825;-66
2023/11/14 00:16:43;;;;;;;6.13;4.37;;;;;;;4.00;67.16;93565.69;513589;28;757;-66
2023/11/14 00:16:58;;;;;;;7.38;4.30;;;;;;;4.02;66.65;93565.91;513428;28;782;-65
2023/11/14 00:17:14;;;;;;;7.70;4.50;;;;;;;4.03;66.39;93566.66;513263;28;1163;-66
2023/11/14 00:17:29;;;;;;;7.75;4.90;;;;;;;4.04;66.94;93574.34;513425;28;1171;-66
2023/11/14 00:17:45;;;;;;;6.90;5.10;;;;;;;4.06;66.47;93574.59;513789;28;992;-66
2023/11/14 00:18:01;;;;;;;8.18;5.22;;;;;;;4.06;66.43;93566.38;515285;28;1077;-66
2023/11/14 00:18:16;;;;;;;10.30;5.28;;;;;;;4.06;66.40;93571.84;515159;28;1150;-66
2023/11/14 00:18:32;;;;;;;11.40;5.23;;;;;;;4.05;66.08;93567.63;515439;28;832;-65
2023/11/14 00:18:47;;;;;;;9.07;5.03;;;;;;;4.04;66.08;93571.63;515622;28;805;-66
2023/11/14 00:19:03;;;;;;;7.27;4.80;;;;;;;3.76;66.46;93538.22;515479;28;787;-66
2023/11/14 00:19:19;;;;;;;7.47;4.78;;;;;;;3.81;66.75;93573.69;515363;28;900;-66
2023/11/14 00:19:34;;;;;;;7.72;5.00;;;;;;;3.70;66.95;93570.97;515357;28;1747;-65
2023/11/14 00:19:50;;;;;;;8.20;5.20;;;;;;;3.68;67.41;93575.47;515582;28;844;-66
2023/11/14 00:20:06;;;;;;;7.72;5.25;;;;;;;3.69;67.08;93576.94;515340;28;899;-66
2023/11/14 00:20:21;;;;;;;6.95;5.25;;;;;;;3.70;67.51;93570.97;515361;28;923;-66
2023/11/14 00:20:36;;;;;;;6.73;4.93;;;;;;;3.71;67.52;93572.47;515552;28;746;-66
2023/11/14 00:20:55;;;;;;;6.50;5.00;;;;;;;3.73;67.53;93569.25;515492;28;938;-65
2023/11/14 00:21:11;;;;;;;7.45;5.57;;;;;;;3.75;67.38;93572.22;515500;28;826;-65
2023/11/14 00:21:27;;;;;;;9.18;6.22;;;;;;;3.76;67.54;93570.97;515451;28;845;-65
2023/11/14 00:21:42;;;;;;;9.23;6.45;;;;;;;3.78;67.13;93568.50;515445;28;769;-66
2023/11/14 00:21:57;;;;;;;8.83;6.67;;;;;;;3.77;67.85;93567.75;515526;28;828;-65
2023/11/14 00:22:14;;;;;;;14.63;7.87;;;;;;;3.78;67.65;93571.22;515235;28;761;-66
2023/11/14 00:22:29;;;;;;;14.85;8.32;;;;;;;3.79;68.08;93561.75;515480;28;808;-66
2023/11/14 00:22:45;;;;;;;10.10;7.40;;;;;;;3.81;67.71;93568.22;515443;28;757;-66
2023/11/14 00:23:00;;;;;;;13.35;7.97;;;;;;;3.80;68.01;93577.66;515596;28;840;-66
2023/11/14 00:23:17;;;;;;;16.50;8.57;;;;;;;3.80;68.10;93576.91;515362;28;801;-66
2023/11/14 00:23:33;;;;;;;13.18;7.95;;;;;;;3.52;68.28;93530.59;515468;28;856;-65
2023/11/14 00:23:49;;;;;;;10.98;7.55;;;;;;;3.81;68.40;93573.69;515388;28;821;-66
2023/11/14 00:24:06;;;;;;;11.20;7.65;;;;;;;3.79;67.98;93561.75;515543;28;841;-66
2023/11/14 00:24:22;;;;;;;12.68;7.75;;;;;;;3.82;67.84;93564.25;515515;28;796;-66
2023/11/14 00:24:37;;;;;;;11.80;7.90;;;;;;;3.78;67.74;93549.38;515440;28;857;-65
2023/11/14 00:24:53;;;;;;;10.77;7.80;;;;;;;3.85;67.59;93562.50;515267;28;837;-65
2023/11/14 00:25:08;;;;;;;11.43;7.55;;;;;;;3.85;67.47;93565.25;515327;28;1376;-65
2023/11/14 00:25:24;;;;;;;9.97;7.63;;;;;;;3.84;68.00;93564.50;515476;28;1978;-66
2023/11/14 00:25:39;;;;;;;9.93;7.57;;;;;;;3.84;67.83;93566.47;515446;28;872;-66
2023/11/14 00:25:55;;;;;;;14.77;7.93;;;;;;;3.83;67.87;93565.72;515438;28;784;-66
2023/11/14 00:26:10;;;;;;;15.90;8.80;;;;;;;3.82;68.02;93566.22;515606;28;1260;-66
2023/11/14 00:26:26;;;;;;;13.80;9.20;;;;;;;3.81;68.07;93570.22;515279;28;888;-66
2023/11/14 00:26:41;;;;;;;14.70;9.60;;;;;;;3.78;67.85;93571.97;515480;28;848;-66
2023/11/14 00:26:56;;;;;;;14.03;9.70;;;;;;;3.79;68.18;93572.69;515352;28;888;-64
2023/11/14 00:27:12;;;;;;;15.30;10.67;;;;;;;3.79;68.26;93578.91;515564;28;860;-66
2023/11/14 00:27:27;;;;;;;18.17;11.13;;;;;;;3.78;67.61;93573.94;515485;28;753;-65
2023/11/14 00:27:42;;;;;;;18.23;11.20;;;;;;;3.54;67.97;93538.28;515534;28;921;-65
2023/11/14 00:27:58;;;;;;;17.10;11.57;;;;;;;3.68;68.63;93570.75;515272;28;750;-66
2023/11/14 00:28:13;;;;;;;22.17;13.60;;;;;;;3.61;68.74;93565.81;515626;28;927;-65
2023/11/14 00:28:29;;;;;;;32.90;17.37;;;;;;;3.57;68.87;93565.31;515129;28;841;-65
2023/11/14 00:28:45;;;;;;;41.30;20.85;;;;;;;3.57;68.43;93564.59;515424;28;785;-65
2023/11/14 00:29:00;;;;;;;48.50;23.20;;;;;;;3.60;68.79;93569.03;515433;28;927;-64
2023/11/14 00:29:16;;;;;;;46.37;22.80;;;;;;;3.62;68.72;93575.47;515519;28;833;-65
2023/11/14 00:29:31;;;;;;;41.47;20.75;;;;;;;3.62;68.81;93572.00;515531;28;805;-66
2023/11/14 00:29:46;;;;;;;40.93;19.70;;;;;;;3.62;68.72;93567.28;515491;28;828;-66
2023/11/14 00:30:02;;;;;;;41.23;20.53;;;;;;;3.63;68.61;93576.97;515510;28;808;-66
2023/11/14 00:30:18;;;;;;;42.45;20.90;;;;;;;3.63;68.72;93573.50;515536;28;883;-65
2023/11/14 00:30:33;;;;;;;41.03;19.80;;;;;;;3.61;68.09;93582.19;515408;28;790;-65
2023/11/14 00:30:48;;;;;;;38.57;19.43;;;;;;;3.59;68.60;93576.50;515432;28;758;-65
2023/11/14 00:31:04;;;;;;;34.60;18.33;;;;;;;3.59;68.31;93581.97;515604;28;866;-65
2023/11/14 00:31:19;;;;;;;33.73;17.63;;;;;;;3.61;68.88;93584.94;513272;28;785;-65
2023/11/14 00:31:35;;;;;;;36.83;17.50;;;;;;;3.62;68.32;93585.66;513336;28;852;-66
2023/11/14 00:31:51;;;;;;;34.85;15.95;;;;;;;3.62;68.32;93578.22;513278;28;816;-66
2023/11/14 00:32:06;;;;;;;28.83;14.18;;;;;;;3.64;68.53;93578.44;513431;28;890;-65
2023/11/14 00:32:21;;;;;;;23.23;12.73;;;;;;;3.65;68.47;93573.75;513198;28;1503;-65
2023/11/14 00:32:37;;;;;;;20.58;11.48;;;;;;;3.65;67.96;93579.94;513370;28;781;-65
2023/11/14 00:32:52;;;;;;;18.60;10.90;;;;;;;3.64;68.51;93583.91;513134;28;837;-65
2023/11/14 00:33:07;;;;;;;17.43;10.13;;;;;;;3.63;68.16;93582.44;513715;28;864;-65
2023/11/14 00:33:23;;;;;;;16.20;9.45;;;;;;;3.64;68.71;93578.44;515353;28;757;-65
2023/11/14 00:33:38;;;;;;;14.17;8.97;;;;;;;3.62;68.29;93578.22;515443;28;797;-65
2023/11/14 00:33:54;;;;;;;15.83;9.60;;;;;;;3.63;68.59;93581.69;515358;28;761;-65
2023/11/14 00:34:09;;;;;;;15.75;9.75;;;;;;;3.63;68.18;93587.91;515454;28;2161;-65
2023/11/14 00:34:25;;;;;;;14.75;9.07;;;;;;;3.62;68.76;93583.66;515148;28;912;-65
2023/11/14 00:34:40;;;;;;;16.17;9.10;;;;;;;3.63;68.62;93587.91;515298;28;777;-65
2023/11/14 00:34:55;;;;;;;14.07;8.97;;;;;;;3.64;68.25;93577.69;515334;28;816;-65
2023/11/14 00:35:11;;;;;;;13.45;8.65;;;;;;;3.65;67.84;93579.94;515388;28;848;-65
2023/11/14 00:35:26;;;;;;;15.50;8.47;;;;;;;3.65;68.41;93576.47;515220;28;828;-64
2023/11/14 00:35:43;;;;;;;16.63;8.83;;;;;;;3.59;68.48;93586.66;515332;28;820;-65
2023/11/14 00:35:59;;;;;;;14.18;8.27;;;;;;;3.58;68.42;93575.00;515329;28;924;-64
2023/11/14 00:36:15;;;;;;;10.45;7.28;;;;;;;3.58;68.50;93576.97;515456;28;897;-65
2023/11/14 00:36:30;;;;;;;9.60;7.43;;;;;;;3.58;68.56;93585.91;515359;28;821;-65
2023/11/14 00:36:47;;;;;;;13.37;7.67;;;;;;;3.58;68.16;93583.19;515428;28;951;-65
2023/11/14 00:37:02;;;;;;;12.80;7.43;;;;;;;3.57;68.69;93581.69;515357;28;845;-65
2023/11/14 00:37:17;;;;;;;8.80;6.50;;;;;;;3.56;68.46;93582.19;515581;28;852;-65
2023/11/14 00:37:33;;;;;;;8.77;5.80;;;;;;;3.54;68.58;93582.69;515352;28;778;-65
2023/11/14 00:37:48;;;;;;;9.60;6.43;;;;;;;3.53;68.80;93583.94;515366;28;862;-64
2023/11/14 00:38:04;;;;;;;9.13;6.80;;;;;;;3.55;68.83;93586.19;515590;28;860;-65
2023/11/14 00:38:19;;;;;;;9.82;7.05;;;;;;;3.56;69.05;93590.38;515476;28;812;-65
2023/11/14 00:38:35;;;;;;;11.87;7.70;;;;;;;3.55;69.09;93586.91;515361;28;876;-65
2023/11/14 00:38:50;;;;;;;13.23;7.60;;;;;;;3.53;69.32;93585.94;515277;28;959;-65
2023/11/14 00:39:06;;;;;;;13.50;7.93;;;;;;;3.53;69.28;93583.94;515641;28;897;-65
2023/11/14 00:39:21;;;;;;;16.00;8.88;;;;;;;3.54;68.66;93585.44;515333;28;825;-65
2023/11/14 00:39:36;;;;;;;15.73;9.13;;;;;;;3.55;68.66;93586.19;515422;28;964;-65
2023/11/14 00:39:52;;;;;;;11.67;8.47;;;;;;;3.57;69.14;93578.25;515409;28;967;-65
2023/11/14 00:40:09;;;;;;;10.27;7.40;;;;;;;3.58;68.56;93580.47;515652;28;769;-65
2023/11/14 00:40:24;;;;;;;11.52;7.07;;;;;;;3.59;68.84;93589.41;515297;28;867;-65
2023/11/14 00:40:40;;;;;;;11.10;7.63;;;;;;;3.60;68.67;93580.69;515471;28;772;-65
2023/11/14 00:40:56;;;;;;;10.95;8.10;;;;;;;3.60;68.98;93586.16;515257;28;809;-65
2023/11/14 00:41:12;;;;;;;11.68;8.07;;;;;;;3.58;68.67;93582.44;515568;28;943;-65
2023/11/14 00:41:27;;;;;;;10.77;7.55;;;;;;;3.55;68.41;93586.19;515410;28;907;-65
2023/11/14 00:41:43;;;;;;;11.27;7.50;;;;;;;3.51;68.66;93585.69;515344;28;860;-65
2023/11/14 00:41:59;;;;;;;11.73;7.30;;;;;;;3.47;68.70;93587.91;515370;28;899;-65
2023/11/14 00:42:15;;;;;;;9.35;6.63;;;;;;;3.41;68.63;93585.22;515632;28;883;-65
2023/11/14 00:42:33;;;;;;;9.10;6.33;;;;;;;3.38;69.17;93583.47;515507;28;884;-65
2023/11/14 00:42:49;;;;;;;8.95;6.00;;;;;;;3.13;69.01;93553.75;515424;28;916;-65
2023/11/14 00:43:04;;;;;;;9.10;6.20;;;;;;;3.26;68.94;93582.00;515223;28;781;-65
2023/11/14 00:43:20;;;;;;;11.63;7.00;;;;;;;3.26;69.13;93586.72;515452;28;884;-65
2023/11/14 00:43:35;;;;;;;10.43;6.87;;;;;;;3.27;68.83;93577.31;515527;28;1058;-65
2023/11/14 00:43:50;;;;;;;9.47;6.90;;;;;;;3.30;69.21;93576.28;515374;28;889;-65
2023/11/14 00:44:06;;;;;;;9.60;7.15;;;;;;;3.31;69.11;93573.09;515417;28;979;-65
2023/11/14 00:44:22;;;;;;;8.50;6.83;;;;;;;3.33;69.13;93578.03;515601;28;884;-65
2023/11/14 00:44:37;;;;;;;9.85;6.95;;;;;;;3.35;69.17;93581.00;515566;28;809;-66
2023/11/14 00:44:52;;;;;;;13.00;7.57;;;;;;;3.36;69.30;93580.50;515383;28;824;-66
2023/11/14 00:45:10;;;;;;;15.18;9.15;;;;;;;3.38;69.62;93585.47;515292;28;797;-65
2023/11/14 00:45:27;;;;;;;17.40;10.30;;;;;;;3.39;69.59;93581.50;515365;28;1976;-65
2023/11/14 00:45:43;;;;;;;15.25;10.27;;;;;;;3.42;69.07;93578.50;515661;28;872;-64
2023/11/14 00:45:58;;;;;;;12.40;10.03;;;;;;;3.44;69.58;93578.78;515298;28;761;-65
2023/11/14 00:46:13;;;;;;;14.60;10.37;;;;;;;3.46;69.70;93584.47;515380;28;895;-65
2023/11/14 00:46:29;;;;;;;15.95;10.43;;;;;;;3.48;69.01;93581.97;515467;28;770;-65
2023/11/14 00:46:44;;;;;;;16.50;10.17;;;;;;;3.49;69.08;93580.72;515584;28;753;-65
2023/11/14 00:47:00;;;;;;;17.37;10.20;;;;;;;3.51;69.19;93580.97;515319;28;860;-64
2023/11/14 00:47:15;;;;;;;17.92;10.25;;;;;;;3.53;69.37;93583.22;515168;28;837;-65
2023/11/14 00:47:31;;;;;;;16.07;9.53;;;;;;;3.55;69.19;93586.19;515696;28;864;-65
2023/11/14 00:47:46;;;;;;;14.73;8.77;;;;;;;3.56;69.39;93577.50;515593;28;848;-65
2023/11/14 00:48:02;;;;;;;15.18;9.13;;;;;;;3.58;68.61;93579.72;515430;28;833;-65
2023/11/14 00:48:17;;;;;;;14.33;8.90;;;;;;;3.57;68.53;93583.69;515355;28;1055;-65
2023/11/14 00:48:33;;;;;;;14.95;9.15;;;;;;;3.56;68.50;93585.69;515583;28;897;-65
2023/11/14 00:48:48;;;;;;;14.30;9.50;;;;;;;3.56;69.04;93579.47;515273;28;812;-65
2023/11/14 00:49:04;;;;;;;13.23;8.93;;;;;;;3.38;68.56;93552.72;515241;28;829;-65
2023/11/14 00:49:20;;;;;;;11.20;7.67;;;;;;;3.57;68.81;93586.44;515292;28;895;-65
2023/11/14 00:49:35;;;;;;;7.90;6.13;;;;;;;3.57;68.87;93576.22;515621;28;841;-65
2023/11/14 00:49:51;;;;;;;7.83;5.87;;;;;;;3.57;68.85;93583.69;515367;28;820;-65
2023/11/14 00:50:07;;;;;;;7.60;5.85;;;;;;;3.58;68.80;93575.00;515335;28;876;-65
2023/11/14 00:50:23;;;;;;;6.83;5.27;;;;;;;3.58;68.86;93574.25;515309;28;860;-65
2023/11/14 00:50:38;;;;;;;7.28;5.28;;;;;;;3.57;68.83;93580.97;515773;28;796;-65
2023/11/14 00:50:54;;;;;;;7.40;5.07;;;;;;;3.56;68.11;93582.94;515205;28;801;-65
2023/11/14 00:51:10;;;;;;;6.93;4.93;;;;;;;3.56;68.45;93582.19;515421;28;773;-65
2023/11/14 00:51:26;;;;;;;7.97;5.57;;;;;;;3.57;68.29;93583.69;515234;28;928;-65
2023/11/14 00:51:42;;;;;;;9.13;5.47;;;;;;;3.56;68.20;93584.94;515600;28;915;-65
2023/11/14 00:51:57;;;;;;;8.52;5.25;;;;;;;3.54;68.19;93584.69;515372;28;899;-65
2023/11/14 00:52:14;;;;;;;8.10;5.65;;;;;;;3.56;68.25;93579.47;515450;28;889;-65
2023/11/14 00:52:30;;;;;;;9.52;5.55;;;;;;;3.56;68.30;93584.94;515443;28;910;-65
2023/11/14 00:52:46;;;;;;;8.40;5.13;;;;;;;3.56;67.98;93576.75;515451;28;908;-65
2023/11/14 00:53:01;;;;;;;7.00;5.03;;;;;;;3.52;68.16;93570.78;515486;28;979;-65
2023/11/14 00:53:17;;;;;;;6.72;4.65;;;;;;;3.57;67.88;93578.25;515254;28;1248;-65
2023/11/14 00:53:32;;;;;;;5.23;4.17;;;;;;;3.57;68.27;93578.97;515299;28;754;-65
2023/11/14 00:53:51;;;;;;;5.82;4.25;;;;;;;3.58;67.69;93582.44;515522;28;900;-65
2023/11/14 00:54:06;;;;;;;7.65;4.68;;;;;;;3.57;67.92;93578.97;515473;28;1029;-65
2023/11/14 00:54:21;;;;;;;7.70;4.63;;;;;;;3.57;67.46;93581.69;515424;28;761;-65
2023/11/14 00:54:37;;;;;;;6.32;4.10;;;;;;;3.56;67.78;93582.19;515445;28;773;-65
2023/11/14 00:54:52;;;;;;;7.23;4.30;;;;;;;3.56;67.49;93580.22;515344;28;904;-65
2023/11/14 00:55:07;;;;;;;6.53;4.23;;;;;;;3.57;67.40;93578.25;515488;28;813;-65
2023/11/14 00:55:23;;;;;;;5.38;3.95;;;;;;;3.57;67.29;93575.50;515325;28;876;-65
2023/11/14 00:55:38;;;;;;;6.33;4.50;;;;;;;3.56;67.73;93577.50;515243;28;754;-65
2023/11/14 00:55:55;;;;;;;6.72;4.80;;;;;;;3.58;67.57;93571.53;515476;28;781;-65
2023/11/14 00:56:11;;;;;;;5.47;4.45;;;;;;;3.56;67.17;93571.28;515530;28;828;-65
2023/11/14 00:56:26;;;;;;;5.43;4.30;;;;;;;3.58;66.91;93566.06;515303;28;844;-65
2023/11/14 00:56:41;;;;;;;6.50;4.03;;;;;;;3.57;66.56;93570.78;515314;28;833;-65
2023/11/14 00:56:57;;;;;;;5.40;3.70;;;;;;;3.57;67.13;93564.59;515424;28;1114;-65
2023/11/14 00:57:14;;;;;;;5.25;4.03;;;;;;;3.57;67.31;93567.31;515373;28;777;-65
2023/11/14 00:57:30;;;;;;;6.07;4.38;;;;;;;3.57;67.00;93570.03;515579;28;833;-65
2023/11/14 00:57:45;;;;;;;7.00;4.40;;;;;;;3.57;67.42;93561.84;515308;28;816;-65
2023/11/14 00:58:01;;;;;;;6.72;4.20;;;;;;;3.57;67.23;93567.31;515520;28;1209;-65
2023/11/14 00:58:16;;;;;;;5.87;3.97;;;;;;;3.56;67.77;93571.28;515379;28;873;-65
2023/11/14 00:58:31;;;;;;;6.50;4.33;;;;;;;3.55;67.70;93565.06;513191;28;1417;-65
2023/11/14 00:58:47;;;;;;;8.05;4.95;;;;;;;3.55;67.86;93567.06;513255;28;801;-65
2023/11/14 00:59:04;;;;;;;8.30;4.97;;;;;;;3.54;67.55;93569.06;513474;28;789;-65
2023/11/14 00:59:20;;;;;;;7.65;5.03;;;;;;;3.55;67.77;93565.06;513335;28;1097;-65
2023/11/14 00:59:36;;;;;;;6.50;5.30;;;;;;;3.56;68.14;93565.81;513174;28;884;-65
2023/11/14 00:59:51;;;;;;;7.13;5.53;;;;;;;3.56;67.96;93563.09;513001;28;793;-65
2023/11/14 01:00:07;;;;;;;8.93;5.43;;;;;;;3.56;68.41;93561.09;513435;28;786;-65
2023/11/14 01:00:24;;;;;;;8.63;5.20;;;;;;;3.56;68.56;93558.38;514211;28;857;-65
2023/11/14 01:00:39;;;;;;;7.20;5.10;;;;;;;3.57;68.14;93561.84;515342;28;849;-65
2023/11/14 01:00:55;;;;;;;7.10;5.20;;;;;;;3.59;68.54;93567.56;515323;28;841;-65
2023/11/14 01:01:10;;;;;;;7.90;5.53;;;;;;;3.60;68.25;93560.84;515466;28;841;-64
2023/11/14 01:01:26;;;;;;;6.78;5.07;;;;;;;3.61;68.74;93565.81;515548;28;785;-65
2023/11/14 01:01:41;;;;;;;7.37;4.93;;;;;;;3.62;68.07;93572.00;515405;28;1006;-65
2023/11/14 01:01:58;;;;;;;7.50;4.82;;;;;;;3.58;68.45;93558.63;515192;28;1121;-65
2023/11/14 01:02:15;;;;;;;5.05;4.35;;;;;;;3.63;68.25;93563.31;515510;28;896;-65
2023/11/14 01:02:30;;;;;;;5.97;4.40;;;;;;;3.64;68.10;93567.53;515568;28;829;-65
2023/11/14 01:02:45;;;;;;;6.13;4.50;;;;;;;3.65;68.02;93566.31;515346;28;811;-65
2023/11/14 01:03:02;;;;;;;5.18;4.40;;;;;;;3.66;68.09;93570.50;515272;28;936;-65
2023/11/14 01:03:20;;;;;;;5.47;4.43;;;;;;;3.67;67.50;93568.53;515292;28;939;-65
2023/11/14 01:03:36;;;;;;;7.35;4.65;;;;;;;3.66;67.66;93575.25;515560;28;996;-65
2023/11/14 01:03:51;;;;;;;7.07;4.10;;;;;;;3.66;67.16;93575.25;515121;28;857;-65
2023/11/14 01:04:09;;;;;;;5.77;3.93;;;;;;;3.64;67.03;93573.00;515360;28;918;-65
2023/11/14 01:04:25;;;;;;;6.90;4.35;;;;;;;3.58;67.46;93566.06;515177;28;2562;-64
2023/11/14 01:04:41;;;;;;;6.78;4.28;;;;;;;3.65;67.47;93577.22;515540;28;975;-65
2023/11/14 01:04:57;;;;;;;7.13;4.28;;;;;;;3.65;67.69;93582.69;515445;28;957;-64
2023/11/14 01:05:12;;;;;;;6.40;4.17;;;;;;;3.64;67.52;93573.00;515257;28;864;-65
2023/11/14 01:05:28;;;;;;;6.20;4.20;;;;;;;3.65;67.95;93579.19;515246;28;1914;-65
2023/11/14 01:05:44;;;;;;;7.50;4.50;;;;;;;3.66;67.60;93580.69;515513;28;986;-65
2023/11/14 01:06:00;;;;;;;6.90;4.32;;;;;;;3.66;67.72;93584.16;515427;28;933;-65
2023/11/14 01:06:15;;;;;;;6.13;4.30;;;;;;;3.62;68.08;93575.47;515398;28;802;-65
2023/11/14 01:06:31;;;;;;;5.63;3.90;;;;;;;3.56;67.88;93576.75;515306;28;939;-65
2023/11/14 01:06:46;;;;;;;5.33;3.87;;;;;;;3.52;67.56;93570.78;515538;28;805;-65
2023/11/14 01:07:01;;;;;;;5.93;4.57;;;;;;;3.52;67.71;93578.97;515524;28;778;-65
2023/11/14 01:07:17;;;;;;;7.30;5.47;;;;;;;3.51;68.30;93572.78;515482;28;781;-65
2023/11/14 01:07:32;;;;;;;8.53;5.77;;;;;;;3.53;67.89;93580.47;515354;28;821;-65
2023/11/14 01:07:48;;;;;;;10.27;6.28;;;;;;;3.53;67.85;93578.47;515329;28;1147;-65
2023/11/14 01:08:03;;;;;;;10.73;6.13;;;;;;;3.54;67.64;93573.75;515216;28;801;-65
2023/11/14 01:08:19;;;;;;;10.90;6.15;;;;;;;3.55;67.41;93575.25;515326;28;833;-65
2023/11/14 01:08:34;;;;;;;11.53;7.07;;;;;;;3.54;67.23;93579.97;515327;28;1149;-65
2023/11/14 01:08:50;;;;;;;10.60;6.85;;;;;;;3.55;67.53;93580.72;515601;28;829;-65
2023/11/14 01:09:05;;;;;;;11.77;7.00;;;;;;;3.55;67.60;93576.00;515261;28;896;-65
2023/11/14 01:09:21;;;;;;;13.23;7.40;;;;;;;3.31;67.59;93536.88;515202;28;873;-65
2023/11/14 01:09:37;;;;;;;9.80;6.68;;;;;;;3.54;67.47;93573.75;515464;28;801;-66
2023/11/14 01:09:52;;;;;;;8.33;6.17;;;;;;;3.54;67.20;93568.31;515537;28;828;-66
2023/11/14 01:10:09;;;;;;;10.57;6.72;;;;;;;3.56;67.74;93576.75;515234;28;924;-65
2023/11/14 01:10:25;;;;;;;10.90;7.07;;;;;;;3.56;67.33;93571.28;515234;28;927;-65
2023/11/14 01:10:41;;;;;;;9.23;6.47;;;;;;;3.55;67.87;93580.72;515226;28;867;-66
2023/11/14 01:10:57;;;;;;;9.10;6.23;;;;;;;3.54;67.31;93574.50;515507;28;1641;-65
2023/11/14 01:11:12;;;;;;;11.73;7.22;;;;;;;3.53;67.94;93573.00;515219;28;981;-65
2023/11/14 01:11:28;;;;;;;11.60;7.73;;;;;;;3.51;67.80;93574.78;515417;28;869;-65
2023/11/14 01:11:43;;;;;;;10.70;6.97;;;;;;;3.49;67.72;93580.72;515366;28;900;-65
2023/11/14 01:11:59;;;;;;;9.88;6.55;;;;;;;3.48;67.82;93575.78;515495;28;928;-66
2023/11/14 01:12:15;;;;;;;8.13;6.68;;;;;;;3.47;68.01;93577.75;515239;28;932;-66
2023/11/14 01:12:32;;;;;;;8.88;6.82;;;;;;;3.42;68.28;93577.78;515287;28;896;-65
2023/11/14 01:12:47;;;;;;;10.27;7.35;;;;;;;3.37;68.01;93575.78;515367;28;827;-65
2023/11/14 01:13:03;;;;;;;10.30;6.97;;;;;;;3.35;68.51;93576.28;515581;28;782;-66
2023/11/14 01:13:18;;;;;;;11.80;7.00;;;;;;;3.32;68.37;93580.00;515453;28;789;-65
2023/11/14 01:13:34;;;;;;;11.40;6.88;;;;;;;3.31;68.63;93580.53;515366;28;841;-65
2023/11/14 01:13:49;;;;;;;11.70;6.53;;;;;;;3.33;68.94;93578.03;515403;28;894;-66
2023/11/14 01:14:04;;;;;;;12.77;6.70;;;;;;;3.35;69.04;93581.00;515597;28;769;-66
2023/11/14 01:14:20;;;;;;;11.53;6.83;;;;;;;3.37;68.56;93582.00;515341;28;781;-66
2023/11/14 01:14:35;;;;;;;11.00;6.50;;;;;;;3.40;68.88;93583.00;515358;28;781;-66
2023/11/14 01:14:51;;;;;;;11.23;6.57;;;;;;;3.41;68.99;93585.22;515303;28;904;-66
2023/11/14 01:15:06;;;;;;;10.70;6.93;;;;;;;3.38;68.59;93582.75;515592;28;848;-66
2023/11/14 01:15:22;;;;;;;10.63;6.80;;;;;;;3.35;68.82;93579.03;515440;28;782;-66
2023/11/14 01:15:39;;;;;;;10.27;6.70;;;;;;;3.36;68.25;93577.78;515337;28;1041;-66
2023/11/14 01:15:55;;;;;;;10.25;6.88;;;;;;;3.38;68.57;93580.75;515242;28;1004;-65
2023/11/14 01:16:16;;;;;;;10.13;6.50;;;;;;;3.35;69.23;93575.53;515579;28;1047;-65
2023/11/14 01:16:31;;;;;;;11.27;6.63;;;;;;;3.34;68.40;93579.50;515442;28;1003;-66
2023/11/14 01:16:47;;;;;;;10.00;6.80;;;;;;;3.35;68.81;93572.81;513095;28;2165;-66
2023/11/14 01:17:02;;;;;;;9.15;6.75;;;;;;;3.35;68.79;93573.56;513058;28;845;-66